createdAt,value
2019-02-04T00:01:17.360Z,19.07
2019-02-04T00:03:46.410Z,18.25
2019-02-04T00:06:15.495Z,17.90
2019-02-04T00:08:44.556Z,15.45
2019-02-04T00:11:14.015Z,15.50
2019-02-04T00:13:43.020Z,13.60
2019-02-04T00:16:11.954Z,14.83
2019-02-04T00:18:40.902Z,18.00
2019-02-04T00:21:10.982Z,15.78
2019-02-04T00:23:39.867Z,22.75
2019-02-04T00:26:08.898Z,21.82
2019-02-04T00:28:37.987Z,14.00
2019-02-04T00:31:07.079Z,15.50
2019-02-04T00:33:36.499Z,14.60
2019-02-04T00:36:05.704Z,14.63
2019-02-04T00:38:35.819Z,16.97
2019-02-04T00:41:04.873Z,15.35
2019-02-04T00:43:33.832Z,16.97
2019-02-04T00:46:02.862Z,19.87
2019-02-04T00:48:32.156Z,17.67
2019-02-04T00:51:01.068Z,16.45
2019-02-04T00:53:30.189Z,19.73
2019-02-04T00:55:59.185Z,14.80
2019-02-04T00:58:30.378Z,19.32
2019-02-04T01:00:59.362Z,14.93
2019-02-04T01:03:30.855Z,22.17
2019-02-04T01:05:59.506Z,18.40
2019-02-04T01:08:28.522Z,16.73
2019-02-04T01:10:57.589Z,15.75
2019-02-04T01:13:29.673Z,16.73
2019-02-04T01:15:58.783Z,16.75
2019-02-04T01:18:27.881Z,19.60
2019-02-04T01:20:56.930Z,18.67
2019-02-04T01:23:25.870Z,16.30
2019-02-04T01:25:54.970Z,17.92
2019-02-04T01:28:25.080Z,20.00
2019-02-04T01:30:54.583Z,17.82
2019-02-04T01:33:26.239Z,17.67
2019-02-04T01:35:55.362Z,24.35
2019-02-04T01:38:25.444Z,19.65
2019-02-04T01:40:54.576Z,18.98
2019-02-04T01:43:23.542Z,20.08
2019-02-04T01:45:52.478Z,24.80
2019-02-04T01:48:21.521Z,19.27
2019-02-04T01:50:51.853Z,17.77
2019-02-04T01:53:20.856Z,17.23
2019-02-04T01:55:50.984Z,16.40
2019-02-04T01:58:21.344Z,17.62
2019-02-04T02:00:50.378Z,19.82
2019-02-04T02:03:19.394Z,16.20
2019-02-04T02:05:48.529Z,16.67
2019-02-04T02:08:17.606Z,22.50
2019-02-04T02:10:48.103Z,16.57
2019-02-04T02:13:17.311Z,21.15
2019-02-04T02:15:46.401Z,21.65
2019-02-04T02:18:15.493Z,18.45
2019-02-04T02:20:44.579Z,21.27
2019-02-04T02:23:14.884Z,17.27
2019-02-04T02:25:43.924Z,19.20
2019-02-04T02:28:15.467Z,21.05
2019-02-04T02:30:44.709Z,23.30
2019-02-04T02:33:13.667Z,19.67
2019-02-04T02:35:42.550Z,21.90
2019-02-04T02:38:11.628Z,18.70
2019-02-04T02:40:41.114Z,24.45
2019-02-04T02:43:11.761Z,18.30
2019-02-04T02:45:40.774Z,20.68
2019-02-04T02:48:09.752Z,19.57
2019-02-04T02:50:38.818Z,18.17
2019-02-04T02:53:08.035Z,19.85
2019-02-04T02:55:37.643Z,23.95
2019-02-04T02:58:06.724Z,20.20
2019-02-04T03:00:37.957Z,21.45
2019-02-04T03:03:07.070Z,16.50
2019-02-04T03:05:36.169Z,17.62
2019-02-04T03:08:05.249Z,17.27
2019-02-04T03:10:34.628Z,18.77
2019-02-04T03:13:03.650Z,19.55
2019-02-04T03:15:32.749Z,20.30
2019-02-04T03:18:01.762Z,23.35
2019-02-04T03:20:30.788Z,21.30
2019-02-04T03:22:59.816Z,23.27
2019-02-04T03:25:28.829Z,17.87
2019-02-04T03:27:57.909Z,21.60
2019-02-04T03:30:31.785Z,20.70
2019-02-04T03:33:00.934Z,21.73
2019-02-04T03:35:29.918Z,20.55
2019-02-04T03:37:59.515Z,22.35
2019-02-04T03:40:31.550Z,17.23
2019-02-04T03:43:00.877Z,22.77
2019-02-04T03:45:30.004Z,20.70
2019-02-04T03:48:06.432Z,24.80
2019-02-04T03:50:29.823Z,16.42
2019-02-04T03:52:58.823Z,21.93
2019-02-04T03:55:29.095Z,21.65
2019-02-04T03:57:58.761Z,19.57
2019-02-04T04:00:30.458Z,20.02
2019-02-04T04:03:01.557Z,21.52
2019-02-04T04:05:32.269Z,19.77
2019-02-04T04:08:02.516Z,16.35
2019-02-04T04:10:31.561Z,21.95
2019-02-04T04:13:00.674Z,23.83
2019-02-04T04:15:29.719Z,20.45
2019-02-04T04:17:59.131Z,19.40
2019-02-04T04:20:28.136Z,20.92
2019-02-04T04:22:57.140Z,22.22
2019-02-04T04:25:26.072Z,20.95
2019-02-04T04:27:54.960Z,22.20
2019-02-04T04:30:25.804Z,20.62
2019-02-04T04:32:55.548Z,22.75
2019-02-04T04:35:24.501Z,19.77
2019-02-04T04:37:53.537Z,22.62
2019-02-04T04:40:22.822Z,19.62
2019-02-04T04:42:51.739Z,24.15
2019-02-04T04:45:22.448Z,28.52
2019-02-04T04:47:51.635Z,22.80
2019-02-04T04:50:21.152Z,21.12
2019-02-04T04:52:50.228Z,22.17
2019-02-04T04:55:21.565Z,22.45
2019-02-04T04:57:50.475Z,26.12
2019-02-04T05:00:22.104Z,28.83
2019-02-04T05:02:51.131Z,30.92
2019-02-04T05:05:20.149Z,24.18
2019-02-04T05:07:49.431Z,35.33
2019-02-04T05:10:19.509Z,47.78
2019-02-04T05:12:48.401Z,31.05
2019-02-04T05:15:23.133Z,26.80
2019-02-04T05:17:52.784Z,34.78
2019-02-04T05:20:22.083Z,23.35
2019-02-04T05:22:51.196Z,23.77
2019-02-04T05:25:20.151Z,24.47
2019-02-04T05:27:49.129Z,22.55
2019-02-04T05:30:19.749Z,23.83
2019-02-04T05:32:48.812Z,25.35
2019-02-04T05:35:17.940Z,27.10
2019-02-04T05:37:46.935Z,20.43
2019-02-04T05:40:16.707Z,21.90
2019-02-04T05:42:46.576Z,22.82
2019-02-04T05:45:17.001Z,19.10
2019-02-04T05:47:46.013Z,21.07
2019-02-04T05:50:18.137Z,20.88
2019-02-04T05:52:47.085Z,24.87
2019-02-04T05:55:17.757Z,24.23
2019-02-04T05:57:46.856Z,26.37
2019-02-04T06:00:20.672Z,26.33
2019-02-04T06:02:49.749Z,25.85
2019-02-04T06:05:19.353Z,33.10
2019-02-04T06:07:48.325Z,21.52
2019-02-04T06:10:17.634Z,27.05
2019-02-04T06:12:46.518Z,24.63
2019-02-04T06:15:15.469Z,24.40
2019-02-04T06:17:44.356Z,21.20
2019-02-04T06:20:15.972Z,25.95
2019-02-04T06:22:44.945Z,30.17
2019-02-04T06:25:14.162Z,38.48
2019-02-04T06:27:43.153Z,30.57
2019-02-04T06:30:12.440Z,29.80
2019-02-04T06:32:41.418Z,35.60
2019-02-04T06:35:10.475Z,30.70
2019-02-04T06:37:39.364Z,29.82
2019-02-04T06:40:09.986Z,25.00
2019-02-04T06:42:38.915Z,22.40
2019-02-04T06:45:09.813Z,23.57
2019-02-04T06:47:38.813Z,19.37
2019-02-04T06:50:09.949Z,17.82
2019-02-04T06:52:39.499Z,20.70
2019-02-04T06:55:13.485Z,20.25
2019-02-04T06:57:42.388Z,18.90
2019-02-04T07:00:12.542Z,19.98
2019-02-04T07:02:42.631Z,19.75
2019-02-04T07:05:11.725Z,19.02
2019-02-04T07:07:41.737Z,19.23
2019-02-04T07:10:19.297Z,19.67
2019-02-04T07:12:50.273Z,16.40
2019-02-04T07:15:19.253Z,19.25
2019-02-04T07:17:48.296Z,21.87
2019-02-04T07:20:20.488Z,19.27
2019-02-04T07:22:49.484Z,22.93
2019-02-04T07:25:18.973Z,22.60
2019-02-04T07:27:48.044Z,19.35
2019-02-04T07:30:20.041Z,20.85
2019-02-04T07:32:49.267Z,23.20
2019-02-04T07:35:18.292Z,24.72
2019-02-04T07:37:47.868Z,23.00
2019-02-04T07:40:22.692Z,26.37
2019-02-04T07:42:52.044Z,18.98
2019-02-04T07:45:21.137Z,27.85
2019-02-04T07:47:50.709Z,18.52
2019-02-04T07:50:19.690Z,23.83
2019-02-04T07:52:48.648Z,20.00
2019-02-04T07:55:17.617Z,17.90
2019-02-04T07:57:46.589Z,16.73
2019-02-04T08:00:20.566Z,25.23
2019-02-04T08:02:49.650Z,27.02
2019-02-04T08:05:18.625Z,24.87
2019-02-04T08:07:47.965Z,26.05
2019-02-04T08:10:17.360Z,25.85
2019-02-04T08:12:46.356Z,25.37
2019-02-04T08:15:20.962Z,25.68
2019-02-04T08:17:49.939Z,28.47
2019-02-04T08:20:18.944Z,25.88
2019-02-04T08:22:48.357Z,25.48
2019-02-04T08:25:17.688Z,30.90
2019-02-04T08:27:46.667Z,26.73
2019-02-04T08:30:19.528Z,31.55
2019-02-04T08:32:48.662Z,29.15
2019-02-04T08:35:17.616Z,34.70
2019-02-04T08:37:46.611Z,31.87
2019-02-04T08:40:15.717Z,27.02
2019-02-04T08:42:44.706Z,30.08
2019-02-04T08:45:14.335Z,29.25
2019-02-04T08:47:43.326Z,21.50
2019-02-04T08:50:14.836Z,25.17
2019-02-04T08:52:43.742Z,30.55
2019-02-04T08:55:13.015Z,29.87
2019-02-04T08:57:41.993Z,22.25
2019-02-04T09:00:13.885Z,21.00
2019-02-04T09:02:42.800Z,20.17
2019-02-04T09:05:13.529Z,21.73
2019-02-04T09:07:42.748Z,18.55
2019-02-04T09:10:15.098Z,28.00
2019-02-04T09:12:44.059Z,24.35
2019-02-04T09:15:16.186Z,20.77
2019-02-04T09:17:44.299Z,23.80
2019-02-04T09:20:14.937Z,21.17
2019-02-04T09:22:43.847Z,20.20
2019-02-04T09:25:13.896Z,28.67
2019-02-04T09:27:43.909Z,23.30
2019-02-04T09:30:18.668Z,23.73
2019-02-04T09:32:47.614Z,23.10
2019-02-04T09:35:17.684Z,20.92
2019-02-04T09:37:47.771Z,23.38
2019-02-04T09:40:25.353Z,22.60
2019-02-04T09:42:54.330Z,22.65
2019-02-04T09:45:26.909Z,20.77
2019-02-04T09:47:55.064Z,22.85
2019-02-04T09:50:25.453Z,16.07
2019-02-04T09:52:54.469Z,23.83
2019-02-04T09:55:26.381Z,22.93
2019-02-04T09:57:55.305Z,22.77
2019-02-04T10:00:26.817Z,24.95
2019-02-04T10:02:55.807Z,24.45
2019-02-04T10:05:25.119Z,22.37
2019-02-04T10:07:54.015Z,27.00
2019-02-04T10:10:28.480Z,23.00
2019-02-04T10:12:57.492Z,25.90
2019-02-04T10:15:29.239Z,23.07
2019-02-04T10:17:58.334Z,23.35
2019-02-04T10:20:34.121Z,26.77
2019-02-04T10:22:57.981Z,23.92
2019-02-04T10:25:31.016Z,27.73
2019-02-04T10:28:01.083Z,30.75
2019-02-04T10:30:30.135Z,22.75
2019-02-04T10:32:59.286Z,24.70
2019-02-04T10:35:28.318Z,25.88
2019-02-04T10:37:57.554Z,23.65
2019-02-04T10:40:27.199Z,25.30
2019-02-04T10:42:56.266Z,21.07
2019-02-04T10:45:25.279Z,22.25
2019-02-04T10:48:00.192Z,21.50
2019-02-04T10:50:45.215Z,21.77
2019-02-04T10:53:06.042Z,22.48
2019-02-04T10:55:35.043Z,23.38
2019-02-04T10:58:05.019Z,22.35
2019-02-04T11:00:34.622Z,24.50
2019-02-04T11:03:04.141Z,22.17
2019-02-04T11:05:34.927Z,25.08
2019-02-04T11:08:04.451Z,24.20
2019-02-04T11:10:34.941Z,22.70
2019-02-04T11:13:07.453Z,19.25
2019-02-04T11:15:36.514Z,17.07
2019-02-04T11:18:06.175Z,20.88
2019-02-04T11:20:36.042Z,21.25
2019-02-04T11:23:06.151Z,20.17
2019-02-04T11:25:35.217Z,16.07
2019-02-04T11:28:04.728Z,18.82
2019-02-04T11:30:48.508Z,15.15
2019-02-04T11:33:17.522Z,13.28
2019-02-04T11:35:46.641Z,19.60
2019-02-04T11:38:15.719Z,15.20
2019-02-04T11:40:45.910Z,13.80
2019-02-04T11:43:15.574Z,15.88
2019-02-04T11:45:44.690Z,15.00
2019-02-04T11:48:21.395Z,19.98
2019-02-04T11:51:09.207Z,20.20
2019-02-04T11:53:41.209Z,15.08
2019-02-04T11:56:10.365Z,19.32
2019-02-04T11:58:39.358Z,16.55
2019-02-04T12:01:08.316Z,16.97
2019-02-04T12:03:37.331Z,14.53
2019-02-04T12:06:06.876Z,19.75
2019-02-04T12:08:35.875Z,16.77
2019-02-04T12:11:15.166Z,17.55
2019-02-04T12:13:45.313Z,20.37
2019-02-04T12:16:14.306Z,18.82
2019-02-04T12:18:51.650Z,20.75
2019-02-04T12:21:42.844Z,22.05
2019-02-04T12:24:11.904Z,18.52
2019-02-04T12:26:41.953Z,18.73
2019-02-04T12:29:12.046Z,24.55
2019-02-04T12:31:47.061Z,17.92
2019-02-04T12:34:15.992Z,19.48
2019-02-04T12:36:44.968Z,28.17
2019-02-04T12:39:22.213Z,18.48
2019-02-04T12:41:52.269Z,17.75
2019-02-04T12:44:21.264Z,24.15
2019-02-04T12:46:53.824Z,20.10
2019-02-04T12:49:23.778Z,17.25
2019-02-04T12:51:52.832Z,18.75
2019-02-04T12:54:26.630Z,18.25
2019-02-04T12:56:55.008Z,22.15
2019-02-04T12:59:45.097Z,20.27
2019-02-04T13:02:20.224Z,19.32
2019-02-04T13:04:50.250Z,20.25
2019-02-04T13:07:22.264Z,19.62
2019-02-04T13:09:51.189Z,20.75
2019-02-04T13:12:24.422Z,17.27
2019-02-04T13:14:53.399Z,21.07
2019-02-04T13:17:22.355Z,19.50
2019-02-04T13:19:53.189Z,21.57
2019-02-04T13:22:30.889Z,18.45
2019-02-04T13:25:00.872Z,19.40
2019-02-04T13:27:29.868Z,21.02
2019-02-04T13:30:02.197Z,16.87
2019-02-04T13:32:37.080Z,19.05
2019-02-04T13:35:07.411Z,23.18
2019-02-04T13:37:45.711Z,18.70
2019-02-04T13:40:34.397Z,19.65
2019-02-04T13:43:05.648Z,16.80
2019-02-04T13:45:40.424Z,17.92
2019-02-04T13:48:14.885Z,17.55
2019-02-04T13:51:02.771Z,16.77
2019-02-04T13:53:57.863Z,15.90
2019-02-04T13:56:32.923Z,17.35
2019-02-04T13:59:05.133Z,15.85
2019-02-04T14:01:47.385Z,15.95
2019-02-04T14:04:27.416Z,17.98
2019-02-04T14:07:54.221Z,16.90
2019-02-04T14:10:28.872Z,19.77
2019-02-04T14:12:57.937Z,18.02
2019-02-04T14:15:43.537Z,18.90
2019-02-04T14:18:15.731Z,17.60
2019-02-04T14:20:47.365Z,16.67
2019-02-04T14:23:19.454Z,16.87
2019-02-04T14:25:50.424Z,19.82
2019-02-04T14:28:19.745Z,18.07
2019-02-04T14:30:48.788Z,17.57
2019-02-04T14:33:37.817Z,14.65
2019-02-04T14:36:06.908Z,16.60
2019-02-04T14:38:36.161Z,19.00
2019-02-04T14:41:06.205Z,19.55
2019-02-04T14:44:26.152Z,17.12
2019-02-04T14:47:24.328Z,17.67
2019-02-04T14:50:34.761Z,19.90
2019-02-04T14:53:46.146Z,17.40
2019-02-04T14:56:30.538Z,18.70
2019-02-04T14:59:20.422Z,22.42
2019-02-04T15:02:35.346Z,16.35
2019-02-04T15:05:40.516Z,21.95
2019-02-04T15:08:34.267Z,18.77
2019-02-04T15:11:31.640Z,18.57
2019-02-04T15:14:34.656Z,18.52
2019-02-04T15:17:17.449Z,15.25
2019-02-04T15:19:57.849Z,16.45
2019-02-04T15:23:17.036Z,18.02
2019-02-04T15:26:30.545Z,19.77
2019-02-04T15:29:49.997Z,16.85
2019-02-04T15:32:53.601Z,21.70
2019-02-04T15:35:55.621Z,18.92
2019-02-04T15:38:55.797Z,18.42
2019-02-04T15:42:06.647Z,19.17
2019-02-04T15:45:01.413Z,20.00
2019-02-04T15:47:54.909Z,20.80
2019-02-04T15:51:02.166Z,17.12
2019-02-04T15:53:31.009Z,18.60
2019-02-04T15:56:00.898Z,18.60
2019-02-04T15:58:33.431Z,17.32
2019-02-04T16:01:04.608Z,18.20
2019-02-04T16:03:36.109Z,18.12
2019-02-04T16:06:05.104Z,18.25
2019-02-04T16:08:33.962Z,18.27
2019-02-04T16:11:02.948Z,19.25
2019-02-04T16:13:31.943Z,22.62
2019-02-04T16:16:00.861Z,22.30
2019-02-04T16:18:29.778Z,19.75
2019-02-04T16:20:58.756Z,22.60
2019-02-04T16:26:04.574Z,20.82
2019-02-04T16:28:33.493Z,22.80
2019-02-04T16:31:05.172Z,19.80
2019-02-04T16:33:34.041Z,18.25
2019-02-04T16:36:02.999Z,22.32
2019-02-04T16:38:31.913Z,26.87
2019-02-04T16:41:00.986Z,25.77
2019-02-04T16:43:29.908Z,21.50
2019-02-04T16:45:58.790Z,24.10
2019-02-04T16:48:27.619Z,26.00
2019-02-04T16:51:10.548Z,21.40
2019-02-04T16:53:27.154Z,24.55
2019-02-04T16:55:56.265Z,25.02
2019-02-04T16:58:28.224Z,29.15
2019-02-04T17:01:01.713Z,27.52
2019-02-04T17:03:31.613Z,32.67
2019-02-04T17:06:00.604Z,20.17
2019-02-04T17:08:29.899Z,28.70
2019-02-04T17:10:59.028Z,34.03
2019-02-04T17:13:28.034Z,23.25
2019-02-04T17:15:57.005Z,23.80
2019-02-04T17:18:25.945Z,25.10
2019-02-04T17:20:54.926Z,28.00
2019-02-04T17:23:23.892Z,28.25
2019-02-04T17:25:52.932Z,29.30
2019-02-04T17:28:21.894Z,25.68
2019-02-04T17:30:50.720Z,27.62
2019-02-04T17:33:19.549Z,27.75
2019-02-04T17:35:48.368Z,24.55
2019-02-04T17:38:17.294Z,26.17
2019-02-04T17:40:46.116Z,25.32
2019-02-04T17:43:15.045Z,26.82
2019-02-04T17:45:43.916Z,24.67
2019-02-04T17:48:12.999Z,24.40
2019-02-04T17:50:41.951Z,23.85
2019-02-04T17:53:10.854Z,21.95
2019-02-04T17:55:39.738Z,24.80
2019-02-04T17:58:08.637Z,25.90
2019-02-04T18:00:44.220Z,23.15
2019-02-04T18:03:13.115Z,21.27
2019-02-04T18:05:42.149Z,26.50
2019-02-04T18:08:11.624Z,21.35
2019-02-04T18:10:40.865Z,23.57
2019-02-04T18:13:09.954Z,22.37
2019-02-04T18:15:39.861Z,25.32
2019-02-04T18:18:09.061Z,23.73
2019-02-04T18:20:38.044Z,28.92
2019-02-04T18:23:07.343Z,28.77
2019-02-04T18:25:36.297Z,23.25
2019-02-04T18:28:05.512Z,24.57
2019-02-04T18:30:34.974Z,23.90
2019-02-04T18:33:03.936Z,25.40
2019-02-04T18:35:33.289Z,27.35
2019-02-04T18:38:02.372Z,24.35
2019-02-04T18:40:37.035Z,24.67
2019-02-04T18:43:06.018Z,24.10
2019-02-04T18:45:35.047Z,27.17
2019-02-04T18:48:04.728Z,24.45
2019-02-04T18:50:34.101Z,25.77
2019-02-04T18:53:02.991Z,26.45
2019-02-04T18:55:33.103Z,22.05
2019-02-04T18:58:03.173Z,25.72
2019-02-04T19:00:47.256Z,25.25
2019-02-04T19:03:18.061Z,25.85
2019-02-04T19:05:49.153Z,28.15
2019-02-04T19:08:19.156Z,23.80
2019-02-04T19:10:48.149Z,25.05
2019-02-04T19:13:17.061Z,21.33
2019-02-04T19:15:46.105Z,22.67
2019-02-04T19:18:18.641Z,25.02
2019-02-04T19:20:47.263Z,23.67
2019-02-04T19:23:16.284Z,22.50
2019-02-04T19:25:45.294Z,25.30
2019-02-04T19:28:20.088Z,24.72
2019-02-04T19:31:02.558Z,22.13
2019-02-04T19:33:31.417Z,27.32
2019-02-04T19:36:00.513Z,25.88
2019-02-04T19:38:29.581Z,27.45
2019-02-04T19:41:00.029Z,21.37
2019-02-04T19:43:36.110Z,29.65
2019-02-04T19:46:06.047Z,26.25
2019-02-04T19:48:34.982Z,28.73
2019-02-04T19:51:04.184Z,23.87
2019-02-04T19:53:33.632Z,26.97
2019-02-04T19:56:03.596Z,27.85
2019-02-04T19:58:32.529Z,28.70
2019-02-04T20:01:01.424Z,31.40
2019-02-04T20:03:30.554Z,25.97
2019-02-04T20:06:03.558Z,28.17
2019-02-04T20:08:32.970Z,25.95
2019-02-04T20:11:02.727Z,28.95
2019-02-04T20:13:33.482Z,28.35
2019-02-04T20:16:03.510Z,27.95
2019-02-04T20:18:32.545Z,24.70
2019-02-04T20:21:01.444Z,27.82
2019-02-04T20:23:30.664Z,28.52
2019-02-04T20:25:59.581Z,32.03
2019-02-04T20:28:28.609Z,26.73
2019-02-04T20:30:57.555Z,28.23
2019-02-04T20:33:28.407Z,30.30
2019-02-04T20:35:58.468Z,29.82
2019-02-04T20:38:27.882Z,29.67
2019-02-04T20:44:13.758Z,33.40
2019-02-04T20:47:05.166Z,28.02
2019-02-04T20:49:40.307Z,30.35
2019-02-04T20:52:11.418Z,32.53
2019-02-04T20:54:48.228Z,27.67
2019-02-04T20:57:31.186Z,27.52
2019-02-04T21:00:15.233Z,30.32
2019-02-04T21:02:44.288Z,35.70
2019-02-04T21:05:14.931Z,33.70
2019-02-04T21:07:44.037Z,31.82
2019-02-04T21:10:15.867Z,34.05
2019-02-04T21:12:52.516Z,29.15
2019-02-04T21:15:23.971Z,28.05
2019-02-04T21:17:53.189Z,26.52
2019-02-04T21:20:26.708Z,30.08
2019-02-04T21:22:55.921Z,35.23
2019-02-04T21:25:25.114Z,28.73
2019-02-04T21:27:54.733Z,23.90
2019-02-04T21:30:33.875Z,31.80
2019-02-04T21:33:08.971Z,28.32
2019-02-04T21:35:41.189Z,28.67
2019-02-04T21:38:12.552Z,32.90
2019-02-04T21:40:50.606Z,27.13
2019-02-04T21:43:23.718Z,28.65
2019-02-04T21:45:56.008Z,23.90
2019-02-04T21:48:25.043Z,28.02
2019-02-04T21:51:04.352Z,28.60
2019-02-04T21:53:34.444Z,24.77
2019-02-04T21:56:03.457Z,25.15
2019-02-04T21:58:32.565Z,25.32
2019-02-04T22:01:01.645Z,33.98
2019-02-04T22:03:30.661Z,29.25
2019-02-04T22:06:00.751Z,31.40
2019-02-04T22:08:29.704Z,34.05
2019-02-04T22:10:59.153Z,28.70
2019-02-04T22:13:28.177Z,29.52
2019-02-04T22:16:13.558Z,27.52
2019-02-04T22:18:42.485Z,25.82
2019-02-04T22:21:20.668Z,32.65
2019-02-04T22:23:55.741Z,30.32
2019-02-04T22:26:25.774Z,30.57
2019-02-04T22:28:54.706Z,32.48
2019-02-04T22:31:23.664Z,31.77
2019-02-04T22:33:52.629Z,31.12
2019-02-04T22:36:28.609Z,27.90
2019-02-04T22:38:59.373Z,28.83
2019-02-04T22:41:28.839Z,30.62
2019-02-04T22:43:57.837Z,31.95
2019-02-04T22:46:26.834Z,30.50
2019-02-04T22:48:55.792Z,30.35
2019-02-04T22:51:30.952Z,29.80
2019-02-04T22:54:03.146Z,30.88
2019-02-04T22:56:41.254Z,31.85
2019-02-04T22:59:10.278Z,27.58
2019-02-04T23:01:50.217Z,35.17
2019-02-04T23:04:27.069Z,33.73
2019-02-04T23:07:05.441Z,31.65
2019-02-04T23:09:43.296Z,32.00
2019-02-04T23:12:20.585Z,30.23
2019-02-04T23:14:50.327Z,35.10
2019-02-04T23:17:36.670Z,30.15
2019-02-04T23:20:06.012Z,29.85
2019-02-04T23:22:50.901Z,32.63
2019-02-04T23:25:43.376Z,28.32
2019-02-04T23:28:22.329Z,30.60
2019-02-04T23:31:00.221Z,28.47
2019-02-04T23:33:34.985Z,31.57
2019-02-04T23:36:06.659Z,30.80
2019-02-04T23:38:45.013Z,32.28
2019-02-04T23:41:20.156Z,30.57
2019-02-04T23:43:49.209Z,28.20
2019-02-04T23:46:27.800Z,36.50
2019-02-04T23:48:56.490Z,23.98
2019-02-04T23:51:31.804Z,29.80
2019-02-04T23:54:11.945Z,32.53
2019-02-04T23:56:42.040Z,33.02
2019-02-04T23:59:11.981Z,30.27
